KORFKECG

Guest
Details From KORF - Norfolk Intl
To KECG - Elizabeth City Cgas Rgnl
Flight Number -
Tags Routegen Generated
Created
Modified
Stats Distance 44 nm / 82 km
Max Altitude 100 ft / 30 m
Waypoints 5
Social Downloads 1
Likes 0
Share VATSIM

Download

Looking for another format? Having issues loading an existing format? Contact us
Advertisement - Login to hide

Notes

Departing runway 21 KORF. Arriving runway 9 KECG.

Route

KORF +36.83_-076.26 +36.54_-076.17 +36.26_-076.07 KECG

ID Type Via Altitude Latitude Longitude Leg Dist Tot Dist Heading (true) Name
O KORF APT - 0 ft / 0 m 36.88586˚ -76.20829˚ - 0 nm - -
+36.83_-076.26 LATLON - 100 ft / 30 m 36.82858˚ -76.26355˚ 4 nm 4 nm 218° / 218° -
+36.54_-076.17 LATLON - 100 ft / 30 m 36.54300˚ -76.16681˚ 17 nm 22 nm 165° / 165° -
+36.26_-076.07 LATLON - 100 ft / 30 m 36.25742˚ -76.07007˚ 17 nm 39 nm 165° / 165° -
O KECG APT - 0 ft / 0 m 36.26051˚ -76.15974˚ 4 nm 44 nm 272° / 272° -

Altitude Profile

Advertisement - Login to hide

KORF

Details ICAO KORF (ORF)
Name Norfolk Intl
Region United States
Timezone America/New_York (UTC-5.0)
Stats Elevation 26 ft / 8 m (AMSL)
Location 36.894606° -76.201594°
Runways 2
Magnetic Variation 10.907° W

METAR

KORF 111851Z AUTO 05004KT 10SM 09/ A3004 RMK AO2 SLP173 T0094 PWINO $

Decode

TAF

KORF 111720Z 1118/1218 29006KT P6SM SKC FM112100 00000KT P6SM SKC FM120300 19006KT P6SM SCT200 FM121100 21010KT P6SM SCT200

Decode

Departure Runways

ID Width Length Bearing (true) Bearing (mag) Surface Threshold Offset Overrun Length
05 151 ft / 46 m 8,028 ft / 2,447 m 37.69° 48.60° Asphalt 190 ft / 58 m 1,198 ft / 365 m
14 151 ft / 46 m 4,674 ft / 1,425 m 128.08° 138.99° Asphalt 187 ft / 57 m 207 ft / 63 m
23 151 ft / 46 m 8,028 ft / 2,447 m 217.70° 228.61° Asphalt 0 ft / 0 m 200 ft / 61 m
32 151 ft / 46 m 4,674 ft / 1,425 m 308.09° 319.00° Asphalt 177 ft / 54 m 0 ft / 0 m

KECG

Details ICAO KECG (ECG)
Name ELIZABETH CITY CGAS RGNL
Region United States
Timezone America/New_York (UTC-5.0)
Stats Elevation 12 ft / 4 m (AMSL)
Location 36.260476° -76.175356°
Runways 2
Magnetic Variation 10.800° W

METAR

KECG 111854Z 00000KT 10SM CLR 11/M02 A3006 RMK AO2 SLP178 T01061017

Decode

TAF

KECG 111720Z 1118/1218 28006KT P6SM SKC FM112200 21004KT P6SM SKC FM121000 21008KT P6SM SKC FM121400 23013KT P6SM SCT150

Decode

Destination Runways

ID Width Length Bearing (true) Bearing (mag) Surface Threshold Offset Overrun Length
01 150 ft / 46 m 4,529 ft / 1,380 m 2.47° 13.27° Asphalt 299 ft / 91 m 0 ft / 0 m
10 150 ft / 46 m 7,204 ft / 2,196 m 92.41° 103.21° Concrete 0 ft / 0 m 0 ft / 0 m
19 150 ft / 46 m 4,529 ft / 1,380 m 182.47° 193.27° Asphalt 0 ft / 0 m 0 ft / 0 m
28 150 ft / 46 m 7,204 ft / 2,196 m 272.43° 283.23° Concrete 0 ft / 0 m 0 ft / 0 m

Popular Alternatives